sensor_id;sensor_type;location;lat;lon;timestamp;P1;durP1;ratioP1;P2;durP2;ratioP2
45402;SDS011;47427;51.976;5.326;2022-09-09T00:06:55;5.18;;;2.75;;
45402;SDS011;47427;51.976;5.326;2022-09-09T00:10:58;4.53;;;2.80;;
45402;SDS011;47427;51.976;5.326;2022-09-09T00:22:16;12.00;;;3.20;;
45402;SDS011;47427;51.976;5.326;2022-09-09T00:25:54;4.55;;;2.88;;
45402;SDS011;47427;51.976;5.326;2022-09-09T00:29:36;5.03;;;2.63;;
45402;SDS011;47427;51.976;5.326;2022-09-09T00:33:24;3.50;;;2.53;;
45402;SDS011;47427;51.976;5.326;2022-09-09T00:36:49;3.08;;;2.75;;
45402;SDS011;47427;51.976;5.326;2022-09-09T00:40:21;5.50;;;2.67;;
45402;SDS011;47427;51.976;5.326;2022-09-09T00:44:06;7.60;;;2.80;;
45402;SDS011;47427;51.976;5.326;2022-09-09T00:47:50;5.47;;;2.80;;
45402;SDS011;47427;51.976;5.326;2022-09-09T00:51:15;5.88;;;2.95;;
45402;SDS011;47427;51.976;5.326;2022-09-09T00:55:14;8.15;;;3.22;;
45402;SDS011;47427;51.976;5.326;2022-09-09T00:59:25;5.00;;;2.85;;
45402;SDS011;47427;51.976;5.326;2022-09-09T01:02:53;5.38;;;3.03;;
45402;SDS011;47427;51.976;5.326;2022-09-09T01:06:35;5.60;;;3.00;;
45402;SDS011;47427;51.976;5.326;2022-09-09T01:10:07;6.50;;;3.17;;
45402;SDS011;47427;51.976;5.326;2022-09-09T01:13:58;6.90;;;3.05;;
45402;SDS011;47427;51.976;5.326;2022-09-09T01:17:51;4.07;;;3.20;;
45402;SDS011;47427;51.976;5.326;2022-09-09T01:29:17;9.00;;;5.22;;
45402;SDS011;47427;51.976;5.326;2022-09-09T01:32:43;7.60;;;5.78;;
45402;SDS011;47427;51.976;5.326;2022-09-09T01:36:14;6.38;;;5.72;;
45402;SDS011;47427;51.976;5.326;2022-09-09T01:39:52;10.50;;;6.80;;
45402;SDS011;47427;51.976;5.326;2022-09-09T01:43:14;9.25;;;6.78;;
45402;SDS011;47427;51.976;5.326;2022-09-09T01:46:37;12.45;;;8.35;;
45402;SDS011;47427;51.976;5.326;2022-09-09T01:50:08;11.95;;;9.60;;
45402;SDS011;47427;51.976;5.326;2022-09-09T02:01:01;14.23;;;7.28;;
45402;SDS011;47427;51.976;5.326;2022-09-09T02:04:49;8.65;;;5.40;;
45402;SDS011;47427;51.976;5.326;2022-09-09T02:08:26;9.50;;;4.78;;
45402;SDS011;47427;51.976;5.326;2022-09-09T02:12:05;14.07;;;5.85;;
45402;SDS011;47427;51.976;5.326;2022-09-09T02:19:25;10.38;;;5.38;;
45402;SDS011;47427;51.976;5.326;2022-09-09T02:23:01;10.35;;;4.88;;
45402;SDS011;47427;51.976;5.326;2022-09-09T02:26:25;11.48;;;6.50;;
45402;SDS011;47427;51.976;5.326;2022-09-09T02:29:54;8.27;;;5.65;;
45402;SDS011;47427;51.976;5.326;2022-09-09T02:33:46;10.88;;;5.43;;
45402;SDS011;47427;51.976;5.326;2022-09-09T02:37:17;7.95;;;5.75;;
45402;SDS011;47427;51.976;5.326;2022-09-09T02:40:47;10.10;;;6.38;;
45402;SDS011;47427;51.976;5.326;2022-09-09T02:44:11;8.43;;;5.53;;
45402;SDS011;47427;51.976;5.326;2022-09-09T02:51:45;10.90;;;5.47;;
45402;SDS011;47427;51.976;5.326;2022-09-09T02:55:24;9.05;;;6.00;;
45402;SDS011;47427;51.976;5.326;2022-09-09T02:59:07;6.97;;;6.28;;
45402;SDS011;47427;51.976;5.326;2022-09-09T03:02:31;10.13;;;6.68;;
45402;SDS011;47427;51.976;5.326;2022-09-09T03:05:58;15.82;;;6.60;;
45402;SDS011;47427;51.976;5.326;2022-09-09T03:09:22;30.10;;;7.85;;
45402;SDS011;47427;51.976;5.326;2022-09-09T03:13:04;13.35;;;7.07;;
45402;SDS011;47427;51.976;5.326;2022-09-09T03:16:30;13.85;;;6.95;;
45402;SDS011;47427;51.976;5.326;2022-09-09T03:19:55;7.47;;;6.63;;
45402;SDS011;47427;51.976;5.326;2022-09-09T03:23:19;8.65;;;6.88;;
45402;SDS011;47427;51.976;5.326;2022-09-09T03:26:44;9.43;;;6.70;;
45402;SDS011;47427;51.976;5.326;2022-09-09T03:30:10;11.57;;;5.95;;
45402;SDS011;47427;51.976;5.326;2022-09-09T03:33:33;9.02;;;6.72;;
45402;SDS011;47427;51.976;5.326;2022-09-09T03:36:56;12.00;;;7.18;;
45402;SDS011;47427;51.976;5.326;2022-09-09T03:40:20;9.20;;;6.40;;
45402;SDS011;47427;51.976;5.326;2022-09-09T03:43:43;13.20;;;8.13;;
45402;SDS011;47427;51.976;5.326;2022-09-09T03:47:06;13.45;;;7.72;;
45402;SDS011;47427;51.976;5.326;2022-09-09T03:50:29;10.00;;;7.63;;
45402;SDS011;47427;51.976;5.326;2022-09-09T03:54:12;11.63;;;6.22;;
45402;SDS011;47427;51.976;5.326;2022-09-09T03:57:38;7.85;;;6.55;;
45402;SDS011;47427;51.976;5.326;2022-09-09T04:01:05;13.88;;;7.35;;
45402;SDS011;47427;51.976;5.326;2022-09-09T04:04:35;13.48;;;6.57;;
45402;SDS011;47427;51.976;5.326;2022-09-09T04:07:59;12.02;;;7.35;;
45402;SDS011;47427;51.976;5.326;2022-09-09T04:11:22;10.27;;;6.55;;
45402;SDS011;47427;51.976;5.326;2022-09-09T04:14:47;11.30;;;5.90;;
45402;SDS011;47427;51.976;5.326;2022-09-09T04:18:10;8.57;;;6.53;;
45402;SDS011;47427;51.976;5.326;2022-09-09T04:21:34;9.27;;;5.90;;
45402;SDS011;47427;51.976;5.326;2022-09-09T04:24:57;10.35;;;5.63;;
45402;SDS011;47427;51.976;5.326;2022-09-09T04:28:20;12.07;;;6.45;;
45402;SDS011;47427;51.976;5.326;2022-09-09T04:31:45;13.93;;;5.80;;
45402;SDS011;47427;51.976;5.326;2022-09-09T04:35:08;11.60;;;5.25;;
45402;SDS011;47427;51.976;5.326;2022-09-09T04:38:31;11.73;;;5.55;;
45402;SDS011;47427;51.976;5.326;2022-09-09T04:41:56;12.98;;;5.63;;
45402;SDS011;47427;51.976;5.326;2022-09-09T04:45:18;12.13;;;5.70;;
45402;SDS011;47427;51.976;5.326;2022-09-09T04:48:41;13.52;;;5.38;;
45402;SDS011;47427;51.976;5.326;2022-09-09T04:52:04;13.15;;;5.15;;
45402;SDS011;47427;51.976;5.326;2022-09-09T04:55:29;12.63;;;5.20;;
45402;SDS011;47427;51.976;5.326;2022-09-09T04:58:53;8.93;;;5.10;;
45402;SDS011;47427;51.976;5.326;2022-09-09T05:02:22;14.07;;;5.45;;
45402;SDS011;47427;51.976;5.326;2022-09-09T05:05:45;13.38;;;6.13;;
45402;SDS011;47427;51.976;5.326;2022-09-09T05:09:27;12.25;;;5.38;;
45402;SDS011;47427;51.976;5.326;2022-09-09T05:12:53;14.88;;;5.78;;
45402;SDS011;47427;51.976;5.326;2022-09-09T05:16:20;11.60;;;5.45;;
45402;SDS011;47427;51.976;5.326;2022-09-09T05:19:44;17.42;;;4.95;;
45402;SDS011;47427;51.976;5.326;2022-09-09T05:23:25;11.13;;;5.13;;
45402;SDS011;47427;51.976;5.326;2022-09-09T05:27:08;13.02;;;6.05;;
45402;SDS011;47427;51.976;5.326;2022-09-09T05:30:35;16.13;;;5.63;;
45402;SDS011;47427;51.976;5.326;2022-09-09T05:33:59;15.43;;;5.32;;
45402;SDS011;47427;51.976;5.326;2022-09-09T05:37:41;17.10;;;6.60;;
45402;SDS011;47427;51.976;5.326;2022-09-09T05:41:04;15.32;;;5.70;;
45402;SDS011;47427;51.976;5.326;2022-09-09T05:44:28;11.45;;;5.90;;
45402;SDS011;47427;51.976;5.326;2022-09-09T05:47:51;14.23;;;5.43;;
45402;SDS011;47427;51.976;5.326;2022-09-09T05:51:18;10.57;;;5.05;;
45402;SDS011;47427;51.976;5.326;2022-09-09T05:54:44;8.70;;;4.43;;
45402;SDS011;47427;51.976;5.326;2022-09-09T05:58:07;11.25;;;5.38;;
45402;SDS011;47427;51.976;5.326;2022-09-09T06:01:31;18.63;;;4.43;;
45402;SDS011;47427;51.976;5.326;2022-09-09T06:04:57;11.07;;;4.07;;
45402;SDS011;47427;51.976;5.326;2022-09-09T06:08:19;17.45;;;4.63;;
45402;SDS011;47427;51.976;5.326;2022-09-09T06:11:42;15.02;;;5.80;;
45402;SDS011;47427;51.976;5.326;2022-09-09T06:15:07;11.65;;;4.35;;
45402;SDS011;47427;51.976;5.326;2022-09-09T06:18:31;8.88;;;4.70;;
45402;SDS011;47427;51.976;5.326;2022-09-09T06:21:53;12.20;;;5.32;;
45402;SDS011;47427;51.976;5.326;2022-09-09T06:25:16;11.80;;;4.30;;
45402;SDS011;47427;51.976;5.326;2022-09-09T06:28:40;17.60;;;4.05;;
45402;SDS011;47427;51.976;5.326;2022-09-09T06:32:05;15.23;;;3.80;;
45402;SDS011;47427;51.976;5.326;2022-09-09T06:35:30;19.77;;;5.63;;
45402;SDS011;47427;51.976;5.326;2022-09-09T06:38:53;17.55;;;4.82;;
45402;SDS011;47427;51.976;5.326;2022-09-09T06:42:16;12.57;;;4.18;;
45402;SDS011;47427;51.976;5.326;2022-09-09T06:46:06;16.35;;;5.07;;
45402;SDS011;47427;51.976;5.326;2022-09-09T06:49:39;18.15;;;4.38;;
45402;SDS011;47427;51.976;5.326;2022-09-09T06:53:20;11.98;;;3.60;;
45402;SDS011;47427;51.976;5.326;2022-09-09T06:56:43;8.80;;;3.00;;
45402;SDS011;47427;51.976;5.326;2022-09-09T07:00:14;15.93;;;4.53;;
45402;SDS011;47427;51.976;5.326;2022-09-09T07:03:37;11.45;;;3.35;;
45402;SDS011;47427;51.976;5.326;2022-09-09T07:07:02;12.55;;;3.25;;
45402;SDS011;47427;51.976;5.326;2022-09-09T07:10:26;16.23;;;4.85;;
45402;SDS011;47427;51.976;5.326;2022-09-09T07:13:50;13.93;;;4.00;;
45402;SDS011;47427;51.976;5.326;2022-09-09T07:17:12;14.23;;;4.03;;
45402;SDS011;47427;51.976;5.326;2022-09-09T07:20:36;14.32;;;4.13;;
45402;SDS011;47427;51.976;5.326;2022-09-09T07:24:00;13.32;;;3.53;;
45402;SDS011;47427;51.976;5.326;2022-09-09T07:27:24;10.13;;;3.65;;
45402;SDS011;47427;51.976;5.326;2022-09-09T07:30:54;17.80;;;5.32;;
45402;SDS011;47427;51.976;5.326;2022-09-09T07:34:36;13.68;;;3.83;;
45402;SDS011;47427;51.976;5.326;2022-09-09T07:38:00;21.60;;;5.13;;
45402;SDS011;47427;51.976;5.326;2022-09-09T07:41:24;10.40;;;3.58;;
45402;SDS011;47427;51.976;5.326;2022-09-09T07:44:50;10.98;;;3.75;;
45402;SDS011;47427;51.976;5.326;2022-09-09T07:48:16;13.65;;;3.75;;
45402;SDS011;47427;51.976;5.326;2022-09-09T07:51:42;20.50;;;4.28;;
45402;SDS011;47427;51.976;5.326;2022-09-09T07:55:08;27.67;;;4.85;;
45402;SDS011;47427;51.976;5.326;2022-09-09T07:58:32;15.35;;;3.42;;
45402;SDS011;47427;51.976;5.326;2022-09-09T08:01:55;9.73;;;2.95;;
45402;SDS011;47427;51.976;5.326;2022-09-09T08:05:24;10.40;;;3.17;;
45402;SDS011;47427;51.976;5.326;2022-09-09T08:09:06;9.68;;;3.03;;
45402;SDS011;47427;51.976;5.326;2022-09-09T08:12:31;12.27;;;3.53;;
45402;SDS011;47427;51.976;5.326;2022-09-09T08:15:55;11.73;;;3.35;;
45402;SDS011;47427;51.976;5.326;2022-09-09T08:19:38;8.23;;;2.80;;
45402;SDS011;47427;51.976;5.326;2022-09-09T08:23:06;10.32;;;3.10;;
45402;SDS011;47427;51.976;5.326;2022-09-09T08:26:34;12.00;;;3.53;;
45402;SDS011;47427;51.976;5.326;2022-09-09T08:30:00;11.68;;;2.90;;
45402;SDS011;47427;51.976;5.326;2022-09-09T08:33:24;13.27;;;4.05;;
45402;SDS011;47427;51.976;5.326;2022-09-09T08:36:48;10.00;;;3.13;;
45402;SDS011;47427;51.976;5.326;2022-09-09T08:40:18;12.25;;;3.17;;
45402;SDS011;47427;51.976;5.326;2022-09-09T08:48:10;12.50;;;3.35;;
45402;SDS011;47427;51.976;5.326;2022-09-09T08:51:57;12.02;;;3.30;;
45402;SDS011;47427;51.976;5.326;2022-09-09T08:59:07;12.38;;;2.92;;
45402;SDS011;47427;51.976;5.326;2022-09-09T09:02:56;16.40;;;3.60;;
45402;SDS011;47427;51.976;5.326;2022-09-09T09:10:47;14.13;;;3.55;;
45402;SDS011;47427;51.976;5.326;2022-09-09T09:14:18;13.13;;;2.90;;
45402;SDS011;47427;51.976;5.326;2022-09-09T09:17:56;21.52;;;4.53;;
45402;SDS011;47427;51.976;5.326;2022-09-09T09:25:11;19.95;;;2.95;;
45402;SDS011;47427;51.976;5.326;2022-09-09T09:28:48;12.65;;;3.78;;
45402;SDS011;47427;51.976;5.326;2022-09-09T09:32:13;7.70;;;3.28;;
45402;SDS011;47427;51.976;5.326;2022-09-09T09:35:40;9.45;;;3.55;;
45402;SDS011;47427;51.976;5.326;2022-09-09T09:39:03;10.85;;;3.22;;
45402;SDS011;47427;51.976;5.326;2022-09-09T09:42:28;10.55;;;3.08;;
45402;SDS011;47427;51.976;5.326;2022-09-09T09:45:52;12.98;;;2.50;;
45402;SDS011;47427;51.976;5.326;2022-09-09T09:49:33;13.23;;;2.80;;
45402;SDS011;47427;51.976;5.326;2022-09-09T09:52:57;15.48;;;3.30;;
45402;SDS011;47427;51.976;5.326;2022-09-09T09:56:27;9.27;;;3.17;;
45402;SDS011;47427;51.976;5.326;2022-09-09T10:03:49;8.57;;;2.72;;
45402;SDS011;47427;51.976;5.326;2022-09-09T10:07:22;13.43;;;3.17;;
45402;SDS011;47427;51.976;5.326;2022-09-09T10:10:50;13.80;;;2.90;;
45402;SDS011;47427;51.976;5.326;2022-09-09T10:14:21;12.40;;;2.60;;
45402;SDS011;47427;51.976;5.326;2022-09-09T10:18:45;10.93;;;2.65;;
45402;SDS011;47427;51.976;5.326;2022-09-09T10:22:47;10.10;;;2.78;;
45402;SDS011;47427;51.976;5.326;2022-09-09T10:30:29;12.88;;;3.30;;
45402;SDS011;47427;51.976;5.326;2022-09-09T10:42:12;7.88;;;3.03;;
45402;SDS011;47427;51.976;5.326;2022-09-09T10:45:41;8.73;;;3.17;;
45402;SDS011;47427;51.976;5.326;2022-09-09T10:49:28;6.90;;;3.03;;
45402;SDS011;47427;51.976;5.326;2022-09-09T10:53:35;9.00;;;3.15;;
45402;SDS011;47427;51.976;5.326;2022-09-09T10:57:33;11.52;;;3.88;;
45402;SDS011;47427;51.976;5.326;2022-09-09T11:05:10;6.90;;;3.00;;
45402;SDS011;47427;51.976;5.326;2022-09-09T11:08:43;9.10;;;2.65;;
45402;SDS011;47427;51.976;5.326;2022-09-09T11:12:08;9.07;;;2.75;;
45402;SDS011;47427;51.976;5.326;2022-09-09T11:16:01;7.20;;;2.53;;
45402;SDS011;47427;51.976;5.326;2022-09-09T11:23:09;10.85;;;3.30;;
45402;SDS011;47427;51.976;5.326;2022-09-09T11:26:38;11.80;;;3.40;;
45402;SDS011;47427;51.976;5.326;2022-09-09T11:30:16;7.47;;;2.92;;
45402;SDS011;47427;51.976;5.326;2022-09-09T11:37:45;10.90;;;3.47;;
45402;SDS011;47427;51.976;5.326;2022-09-09T11:41:51;9.18;;;3.15;;
45402;SDS011;47427;51.976;5.326;2022-09-09T11:45:19;15.25;;;4.38;;
45402;SDS011;47427;51.976;5.326;2022-09-09T11:48:59;11.98;;;3.30;;
45402;SDS011;47427;51.976;5.326;2022-09-09T11:52:43;11.43;;;4.32;;
45402;SDS011;47427;51.976;5.326;2022-09-09T11:56:11;7.78;;;3.63;;
45402;SDS011;47427;51.976;5.326;2022-09-09T12:02:59;9.90;;;3.88;;
45402;SDS011;47427;51.976;5.326;2022-09-09T12:06:25;9.98;;;3.10;;
45402;SDS011;47427;51.976;5.326;2022-09-09T12:10:40;5.72;;;3.20;;
45402;SDS011;47427;51.976;5.326;2022-09-09T12:13:55;10.63;;;3.45;;
45402;SDS011;47427;51.976;5.326;2022-09-09T12:17:26;8.75;;;3.15;;
45402;SDS011;47427;51.976;5.326;2022-09-09T12:20:54;5.97;;;3.08;;
45402;SDS011;47427;51.976;5.326;2022-09-09T12:32:10;10.27;;;3.55;;
45402;SDS011;47427;51.976;5.326;2022-09-09T12:35:50;8.05;;;3.08;;
45402;SDS011;47427;51.976;5.326;2022-09-09T12:39:40;9.63;;;3.42;;
45402;SDS011;47427;51.976;5.326;2022-09-09T12:43:18;11.93;;;3.78;;
45402;SDS011;47427;51.976;5.326;2022-09-09T12:46:44;14.75;;;3.88;;
45402;SDS011;47427;51.976;5.326;2022-09-09T12:50:51;24.88;;;4.15;;
45402;SDS011;47427;51.976;5.326;2022-09-09T12:53:59;6.07;;;2.70;;
45402;SDS011;47427;51.976;5.326;2022-09-09T12:57:23;7.18;;;2.60;;
45402;SDS011;47427;51.976;5.326;2022-09-09T13:00:49;9.60;;;2.85;;
45402;SDS011;47427;51.976;5.326;2022-09-09T13:04:20;7.95;;;3.03;;
45402;SDS011;47427;51.976;5.326;2022-09-09T13:07:46;8.40;;;3.47;;
45402;SDS011;47427;51.976;5.326;2022-09-09T13:11:14;8.23;;;3.22;;
45402;SDS011;47427;51.976;5.326;2022-09-09T13:15:14;9.30;;;2.90;;
45402;SDS011;47427;51.976;5.326;2022-09-09T13:18:46;7.75;;;2.67;;
45402;SDS011;47427;51.976;5.326;2022-09-09T13:22:13;6.60;;;2.25;;
45402;SDS011;47427;51.976;5.326;2022-09-09T13:25:51;9.73;;;3.70;;
45402;SDS011;47427;51.976;5.326;2022-09-09T13:29:20;7.53;;;3.03;;
45402;SDS011;47427;51.976;5.326;2022-09-09T13:32:43;12.55;;;3.30;;
45402;SDS011;47427;51.976;5.326;2022-09-09T13:36:06;8.27;;;2.53;;
45402;SDS011;47427;51.976;5.326;2022-09-09T13:39:33;8.25;;;3.17;;
45402;SDS011;47427;51.976;5.326;2022-09-09T13:42:58;9.00;;;2.90;;
45402;SDS011;47427;51.976;5.326;2022-09-09T13:53:51;5.43;;;2.10;;
45402;SDS011;47427;51.976;5.326;2022-09-09T13:57:15;7.28;;;2.60;;
45402;SDS011;47427;51.976;5.326;2022-09-09T14:00:42;6.80;;;2.65;;
45402;SDS011;47427;51.976;5.326;2022-09-09T14:04:06;8.73;;;3.28;;
45402;SDS011;47427;51.976;5.326;2022-09-09T14:07:30;6.07;;;2.78;;
45402;SDS011;47427;51.976;5.326;2022-09-09T14:10:53;7.10;;;2.88;;
45402;SDS011;47427;51.976;5.326;2022-09-09T14:14:17;17.15;;;4.03;;
45402;SDS011;47427;51.976;5.326;2022-09-09T14:17:40;7.60;;;2.85;;
45402;SDS011;47427;51.976;5.326;2022-09-09T14:21:03;5.63;;;2.88;;
45402;SDS011;47427;51.976;5.326;2022-09-09T14:24:26;5.32;;;2.70;;
45402;SDS011;47427;51.976;5.326;2022-09-09T14:27:49;5.22;;;2.63;;
45402;SDS011;47427;51.976;5.326;2022-09-09T14:31:13;6.72;;;2.55;;
45402;SDS011;47427;51.976;5.326;2022-09-09T14:34:36;6.22;;;2.75;;
45402;SDS011;47427;51.976;5.326;2022-09-09T14:38:00;5.88;;;2.40;;
45402;SDS011;47427;51.976;5.326;2022-09-09T14:41:23;5.75;;;2.50;;
45402;SDS011;47427;51.976;5.326;2022-09-09T14:44:47;7.10;;;2.53;;
45402;SDS011;47427;51.976;5.326;2022-09-09T14:48:09;5.65;;;2.42;;
45402;SDS011;47427;51.976;5.326;2022-09-09T14:51:32;9.68;;;2.80;;
45402;SDS011;47427;51.976;5.326;2022-09-09T14:54:56;5.78;;;2.97;;
45402;SDS011;47427;51.976;5.326;2022-09-09T14:58:18;7.50;;;2.63;;
45402;SDS011;47427;51.976;5.326;2022-09-09T15:01:41;3.45;;;1.70;;
45402;SDS011;47427;51.976;5.326;2022-09-09T15:05:22;4.82;;;1.83;;
45402;SDS011;47427;51.976;5.326;2022-09-09T15:08:46;5.22;;;1.90;;
45402;SDS011;47427;51.976;5.326;2022-09-09T15:12:09;4.55;;;2.05;;
45402;SDS011;47427;51.976;5.326;2022-09-09T15:15:32;3.97;;;1.58;;
45402;SDS011;47427;51.976;5.326;2022-09-09T15:18:57;3.53;;;1.50;;
45402;SDS011;47427;51.976;5.326;2022-09-09T15:22:21;5.97;;;1.88;;
45402;SDS011;47427;51.976;5.326;2022-09-09T15:25:52;4.05;;;2.00;;
45402;SDS011;47427;51.976;5.326;2022-09-09T15:29:16;4.03;;;1.83;;
45402;SDS011;47427;51.976;5.326;2022-09-09T15:32:40;6.38;;;2.20;;
45402;SDS011;47427;51.976;5.326;2022-09-09T15:36:13;4.13;;;1.98;;
45402;SDS011;47427;51.976;5.326;2022-09-09T15:39:44;3.78;;;1.67;;
45402;SDS011;47427;51.976;5.326;2022-09-09T15:43:07;3.42;;;1.80;;
45402;SDS011;47427;51.976;5.326;2022-09-09T15:46:32;2.72;;;1.50;;
45402;SDS011;47427;51.976;5.326;2022-09-09T15:49:59;3.45;;;1.88;;
45402;SDS011;47427;51.976;5.326;2022-09-09T15:53:40;5.00;;;1.73;;
45402;SDS011;47427;51.976;5.326;2022-09-09T15:57:03;4.60;;;1.73;;
45402;SDS011;47427;51.976;5.326;2022-09-09T16:03:51;4.75;;;1.95;;
45402;SDS011;47427;51.976;5.326;2022-09-09T16:07:15;4.28;;;1.80;;
45402;SDS011;47427;51.976;5.326;2022-09-09T16:10:37;6.22;;;2.13;;
45402;SDS011;47427;51.976;5.326;2022-09-09T16:14:00;2.40;;;1.52;;
45402;SDS011;47427;51.976;5.326;2022-09-09T16:17:23;3.20;;;1.63;;
45402;SDS011;47427;51.976;5.326;2022-09-09T16:20:53;3.17;;;2.08;;
45402;SDS011;47427;51.976;5.326;2022-09-09T16:24:19;7.68;;;2.58;;
45402;SDS011;47427;51.976;5.326;2022-09-09T16:27:42;3.83;;;2.25;;
45402;SDS011;47427;51.976;5.326;2022-09-09T16:31:10;6.28;;;2.35;;
45402;SDS011;47427;51.976;5.326;2022-09-09T16:34:38;4.05;;;2.28;;
45402;SDS011;47427;51.976;5.326;2022-09-09T16:38:01;4.88;;;2.20;;
45402;SDS011;47427;51.976;5.326;2022-09-09T16:41:25;8.93;;;2.95;;
45402;SDS011;47427;51.976;5.326;2022-09-09T16:44:51;5.00;;;2.03;;
45402;SDS011;47427;51.976;5.326;2022-09-09T16:48:14;4.40;;;2.38;;
45402;SDS011;47427;51.976;5.326;2022-09-09T16:51:41;8.15;;;2.92;;
45402;SDS011;47427;51.976;5.326;2022-09-09T16:55:09;7.05;;;3.20;;
45402;SDS011;47427;51.976;5.326;2022-09-09T16:58:32;7.35;;;3.45;;
45402;SDS011;47427;51.976;5.326;2022-09-09T17:01:55;4.82;;;2.70;;
45402;SDS011;47427;51.976;5.326;2022-09-09T17:05:18;7.05;;;2.72;;
45402;SDS011;47427;51.976;5.326;2022-09-09T17:08:41;8.40;;;3.05;;
45402;SDS011;47427;51.976;5.326;2022-09-09T17:12:04;4.82;;;2.45;;
45402;SDS011;47427;51.976;5.326;2022-09-09T17:15:27;6.60;;;2.53;;
45402;SDS011;47427;51.976;5.326;2022-09-09T17:18:50;5.43;;;3.58;;
45402;SDS011;47427;51.976;5.326;2022-09-09T17:22:14;4.70;;;2.75;;
45402;SDS011;47427;51.976;5.326;2022-09-09T17:25:37;8.48;;;3.53;;
45402;SDS011;47427;51.976;5.326;2022-09-09T17:29:00;7.32;;;3.40;;
45402;SDS011;47427;51.976;5.326;2022-09-09T17:32:24;9.25;;;3.30;;
45402;SDS011;47427;51.976;5.326;2022-09-09T17:35:46;6.68;;;3.00;;
45402;SDS011;47427;51.976;5.326;2022-09-09T17:39:10;7.60;;;3.05;;
45402;SDS011;47427;51.976;5.326;2022-09-09T17:42:33;8.55;;;2.90;;
45402;SDS011;47427;51.976;5.326;2022-09-09T17:46:04;11.68;;;2.92;;
45402;SDS011;47427;51.976;5.326;2022-09-09T17:49:32;4.90;;;2.92;;
45402;SDS011;47427;51.976;5.326;2022-09-09T17:52:55;10.40;;;3.28;;
45402;SDS011;47427;51.976;5.326;2022-09-09T17:56:19;7.25;;;4.35;;
45402;SDS011;47427;51.976;5.326;2022-09-09T17:59:44;5.18;;;3.53;;
45402;SDS011;47427;51.976;5.326;2022-09-09T18:03:07;9.52;;;3.70;;
45402;SDS011;47427;51.976;5.326;2022-09-09T18:06:32;13.88;;;3.55;;
45402;SDS011;47427;51.976;5.326;2022-09-09T18:10:00;7.05;;;3.38;;
45402;SDS011;47427;51.976;5.326;2022-09-09T18:13:23;7.10;;;3.47;;
45402;SDS011;47427;51.976;5.326;2022-09-09T18:16:46;7.95;;;3.50;;
45402;SDS011;47427;51.976;5.326;2022-09-09T18:20:10;11.00;;;3.47;;
45402;SDS011;47427;51.976;5.326;2022-09-09T18:23:39;5.85;;;3.20;;
45402;SDS011;47427;51.976;5.326;2022-09-09T18:27:03;8.38;;;4.15;;
45402;SDS011;47427;51.976;5.326;2022-09-09T18:30:26;8.63;;;3.65;;
45402;SDS011;47427;51.976;5.326;2022-09-09T18:33:49;4.68;;;2.90;;
45402;SDS011;47427;51.976;5.326;2022-09-09T18:37:14;12.30;;;3.63;;
45402;SDS011;47427;51.976;5.326;2022-09-09T18:40:36;7.97;;;3.50;;
45402;SDS011;47427;51.976;5.326;2022-09-09T18:44:01;15.60;;;3.42;;
45402;SDS011;47427;51.976;5.326;2022-09-09T18:47:30;6.60;;;3.47;;
45402;SDS011;47427;51.976;5.326;2022-09-09T18:50:53;6.07;;;3.28;;
45402;SDS011;47427;51.976;5.326;2022-09-09T18:54:19;9.65;;;4.00;;
45402;SDS011;47427;51.976;5.326;2022-09-09T18:57:44;8.30;;;3.70;;
45402;SDS011;47427;51.976;5.326;2022-09-09T19:01:07;7.28;;;3.60;;
45402;SDS011;47427;51.976;5.326;2022-09-09T19:04:34;8.05;;;3.65;;
45402;SDS011;47427;51.976;5.326;2022-09-09T19:07:57;12.05;;;4.43;;
45402;SDS011;47427;51.976;5.326;2022-09-09T19:11:20;10.13;;;4.63;;
45402;SDS011;47427;51.976;5.326;2022-09-09T19:14:45;7.47;;;4.50;;
45402;SDS011;47427;51.976;5.326;2022-09-09T19:18:07;10.68;;;5.15;;
45402;SDS011;47427;51.976;5.326;2022-09-09T19:21:32;8.60;;;5.32;;
45402;SDS011;47427;51.976;5.326;2022-09-09T19:24:57;9.52;;;6.20;;
45402;SDS011;47427;51.976;5.326;2022-09-09T19:28:20;13.05;;;5.85;;
45402;SDS011;47427;51.976;5.326;2022-09-09T19:31:43;8.82;;;5.60;;
45402;SDS011;47427;51.976;5.326;2022-09-09T19:35:07;6.22;;;4.85;;
45402;SDS011;47427;51.976;5.326;2022-09-09T19:38:32;8.80;;;5.60;;
45402;SDS011;47427;51.976;5.326;2022-09-09T19:41:56;8.75;;;5.93;;
45402;SDS011;47427;51.976;5.326;2022-09-09T19:45:37;11.25;;;6.95;;
45402;SDS011;47427;51.976;5.326;2022-09-09T19:49:00;10.95;;;6.38;;
45402;SDS011;47427;51.976;5.326;2022-09-09T19:52:25;11.32;;;6.82;;
45402;SDS011;47427;51.976;5.326;2022-09-09T19:55:48;8.48;;;5.65;;
45402;SDS011;47427;51.976;5.326;2022-09-09T19:59:14;7.88;;;5.20;;
45402;SDS011;47427;51.976;5.326;2022-09-09T20:02:36;8.98;;;6.03;;
45402;SDS011;47427;51.976;5.326;2022-09-09T20:06:19;13.73;;;6.30;;
45402;SDS011;47427;51.976;5.326;2022-09-09T20:09:45;12.63;;;6.18;;
45402;SDS011;47427;51.976;5.326;2022-09-09T20:13:07;11.13;;;5.82;;
45402;SDS011;47427;51.976;5.326;2022-09-09T20:16:30;7.78;;;5.93;;
45402;SDS011;47427;51.976;5.326;2022-09-09T20:19:54;13.30;;;6.25;;
45402;SDS011;47427;51.976;5.326;2022-09-09T20:23:17;16.38;;;7.40;;
45402;SDS011;47427;51.976;5.326;2022-09-09T20:26:39;11.70;;;7.50;;
45402;SDS011;47427;51.976;5.326;2022-09-09T20:30:02;12.32;;;8.27;;
45402;SDS011;47427;51.976;5.326;2022-09-09T20:33:26;11.07;;;7.95;;
45402;SDS011;47427;51.976;5.326;2022-09-09T20:36:48;14.60;;;8.73;;
45402;SDS011;47427;51.976;5.326;2022-09-09T20:40:11;13.23;;;8.57;;
45402;SDS011;47427;51.976;5.326;2022-09-09T20:43:35;11.45;;;8.13;;
45402;SDS011;47427;51.976;5.326;2022-09-09T20:46:57;11.85;;;8.25;;
45402;SDS011;47427;51.976;5.326;2022-09-09T20:50:27;10.52;;;8.48;;
45402;SDS011;47427;51.976;5.326;2022-09-09T20:53:57;10.65;;;7.82;;
45402;SDS011;47427;51.976;5.326;2022-09-09T20:57:23;11.00;;;8.82;;
45402;SDS011;47427;51.976;5.326;2022-09-09T21:00:45;14.27;;;9.10;;
45402;SDS011;47427;51.976;5.326;2022-09-09T21:04:08;16.77;;;9.60;;
45402;SDS011;47427;51.976;5.326;2022-09-09T21:07:31;14.25;;;9.48;;
45402;SDS011;47427;51.976;5.326;2022-09-09T21:10:53;12.68;;;9.20;;
45402;SDS011;47427;51.976;5.326;2022-09-09T21:14:17;12.65;;;9.32;;
45402;SDS011;47427;51.976;5.326;2022-09-09T21:17:40;13.07;;;10.57;;
45402;SDS011;47427;51.976;5.326;2022-09-09T21:21:02;16.23;;;11.05;;
45402;SDS011;47427;51.976;5.326;2022-09-09T21:24:25;14.93;;;11.80;;
45402;SDS011;47427;51.976;5.326;2022-09-09T21:27:48;20.42;;;12.25;;
45402;SDS011;47427;51.976;5.326;2022-09-09T21:31:14;12.90;;;11.20;;
45402;SDS011;47427;51.976;5.326;2022-09-09T21:34:39;13.00;;;11.68;;
45402;SDS011;47427;51.976;5.326;2022-09-09T21:38:03;13.80;;;11.80;;
45402;SDS011;47427;51.976;5.326;2022-09-09T21:41:31;14.75;;;13.02;;
45402;SDS011;47427;51.976;5.326;2022-09-09T21:44:54;20.33;;;13.35;;
45402;SDS011;47427;51.976;5.326;2022-09-09T21:48:16;18.50;;;13.60;;
45402;SDS011;47427;51.976;5.326;2022-09-09T21:51:41;22.23;;;14.53;;
45402;SDS011;47427;51.976;5.326;2022-09-09T21:55:04;22.90;;;15.77;;
45402;SDS011;47427;51.976;5.326;2022-09-09T21:58:27;18.35;;;14.75;;
45402;SDS011;47427;51.976;5.326;2022-09-09T22:01:51;20.20;;;15.77;;
45402;SDS011;47427;51.976;5.326;2022-09-09T22:05:14;19.80;;;17.70;;
45402;SDS011;47427;51.976;5.326;2022-09-09T22:08:36;19.17;;;15.27;;
45402;SDS011;47427;51.976;5.326;2022-09-09T22:11:59;23.50;;;15.98;;
45402;SDS011;47427;51.976;5.326;2022-09-09T22:15:22;21.70;;;15.18;;
45402;SDS011;47427;51.976;5.326;2022-09-09T22:18:51;17.95;;;15.52;;
45402;SDS011;47427;51.976;5.326;2022-09-09T22:22:19;19.63;;;15.52;;
45402;SDS011;47427;51.976;5.326;2022-09-09T22:25:42;19.98;;;13.57;;
45402;SDS011;47427;51.976;5.326;2022-09-09T22:29:24;19.33;;;14.32;;